EC7A LFBZ-LEBB
Flight info
| Callsign | EC7A |
|---|---|
| Flight time | N/A |
| Altitude | 4000 |
| Route | FEBRI/N0112F030 |
| Aircraft | C172/L-SFG/C |
Departure
| Time | 2026-04-20 14:59 |
|---|---|
| Airport | Biarritz Pays Basque airport (LFBZ) |
Arrival
| Time | N/A |
|---|---|
| Airport | Bilbao Airport (LEBB) |
| Time | Latitude | Longitude | Altitude | Speed | Heading |
|---|---|---|---|---|---|
| 2026-04-20 14:49 | 43.47049 | -1.53493 | 254 ft | 0 kts | 72° |
| 2026-04-20 14:55 | 43.47055 | -1.53471 | 254 ft | 0 kts | 69° |
| 2026-04-20 14:56 | 43.47059 | -1.53460 | 254 ft | 0 kts | 68° |
| 2026-04-20 14:56 | 43.47059 | -1.53455 | 254 ft | 4 kts | 98° |
| 2026-04-20 14:56 | 43.47001 | -1.53447 | 254 ft | 9 kts | 181° |
| 2026-04-20 14:57 | 43.46985 | -1.53391 | 253 ft | 7 kts | 88° |
| 2026-04-20 14:57 | 43.46986 | -1.53321 | 253 ft | 9 kts | 87° |
| 2026-04-20 14:57 | 43.46971 | -1.53212 | 252 ft | 12 kts | 144° |
| 2026-04-20 14:57 | 43.46901 | -1.53166 | 251 ft | 11 kts | 154° |
| 2026-04-20 14:58 | 43.46843 | -1.53113 | 251 ft | 10 kts | 125° |
| 2026-04-20 14:58 | 43.46833 | -1.52862 | 250 ft | 52 kts | 90° |
| 2026-04-20 14:58 | 43.46846 | -1.52180 | 290 ft | 83 kts | 87° |
| 2026-04-20 14:58 | 43.46862 | -1.51325 | 420 ft | 94 kts | 89° |
| 2026-04-20 14:59 | 43.46864 | -1.50415 | 614 ft | 95 kts | 92° |
| 2026-04-20 14:59 | 43.46831 | -1.49516 | 851 ft | 89 kts | 89° |
| 2026-04-20 14:59 | 43.47126 | -1.49063 | 809 ft | 101 kts | 300° |
| 2026-04-20 14:59 | 43.46890 | -1.50084 | 484 ft | 112 kts | 261° |
| 2026-04-20 15:00 | 43.46859 | -1.51006 | 277 ft | 81 kts | 267° |
| 2026-04-20 15:00 | 43.46849 | -1.51638 | 240 ft | 47 kts | 269° |
| 2026-04-20 15:00 | 43.46848 | -1.51804 | 241 ft | 0 kts | 270° |
| 2026-04-20 15:00 | 43.46847 | -1.51823 | 242 ft | 15 kts | 268° |
| 2026-04-20 15:01 | 43.46842 | -1.52202 | 245 ft | 62 kts | 268° |
| 2026-04-20 15:01 | 43.46816 | -1.52826 | 327 ft | 76 kts | 268° |
| 2026-04-20 15:01 | 43.46781 | -1.53474 | 528 ft | 78 kts | 265° |
| 2026-04-20 15:01 | 0.00528 | 0.00002 | 53808 ft | 0 kts | 0° |